sensor_id;sensor_type;location;lat;lon;timestamp;pressure;altitude;pressure_sealevel;temperature;humidity
68301;BME280;55146;47.468;18.806;2023-02-11T00:02:04;102115.28;;;-2.82;77.28
68301;BME280;55146;47.468;18.806;2023-02-11T00:04:30;102123.22;;;-2.81;77.40
68301;BME280;55146;47.468;18.806;2023-02-11T00:06:55;102116.25;;;-2.83;77.53
68301;BME280;55146;47.468;18.806;2023-02-11T00:09:21;102111.84;;;-2.94;77.70
68301;BME280;55146;47.468;18.806;2023-02-11T00:11:46;102109.88;;;-2.92;77.73
68301;BME280;55146;47.468;18.806;2023-02-11T00:14:11;102104.37;;;-2.91;77.67
68301;BME280;55146;47.468;18.806;2023-02-11T00:16:40;102098.25;;;-2.93;77.38
68301;BME280;55146;47.468;18.806;2023-02-11T00:19:05;102104.50;;;-2.92;77.40
68301;BME280;55146;47.468;18.806;2023-02-11T00:21:31;102103.78;;;-2.94;77.31
68301;BME280;55146;47.468;18.806;2023-02-11T00:23:58;102094.84;;;-2.95;77.30
68301;BME280;55146;47.468;18.806;2023-02-11T00:26:31;102090.44;;;-2.96;77.44
68301;BME280;55146;47.468;18.806;2023-02-11T00:28:57;102099.38;;;-2.95;77.34
68301;BME280;55146;47.468;18.806;2023-02-11T00:31:27;102094.53;;;-3.01;78.00
68301;BME280;55146;47.468;18.806;2023-02-11T00:33:55;102093.97;;;-3.05;78.10
68301;BME280;55146;47.468;18.806;2023-02-11T00:36:23;102095.94;;;-3.07;78.20
68301;BME280;55146;47.468;18.806;2023-02-11T00:38:57;102089.56;;;-3.15;78.45
68301;BME280;55146;47.468;18.806;2023-02-11T00:41:23;102083.12;;;-3.24;78.77
68301;BME280;55146;47.468;18.806;2023-02-11T00:43:49;102084.97;;;-3.24;78.93
68301;BME280;55146;47.468;18.806;2023-02-11T00:46:18;102076.91;;;-3.24;78.81
68301;BME280;55146;47.468;18.806;2023-02-11T00:48:44;102082.03;;;-3.21;78.80
68301;BME280;55146;47.468;18.806;2023-02-11T00:51:10;102084.56;;;-3.20;78.80
68301;BME280;55146;47.468;18.806;2023-02-11T00:53:36;102079.91;;;-3.18;78.45
68301;BME280;55146;47.468;18.806;2023-02-11T00:56:02;102072.12;;;-3.21;78.11
68301;BME280;55146;47.468;18.806;2023-02-11T00:58:28;102077.22;;;-3.18;77.97
68301;BME280;55146;47.468;18.806;2023-02-11T01:00:54;102066.59;;;-3.19;78.03
68301;BME280;55146;47.468;18.806;2023-02-11T01:03:20;102073.09;;;-3.22;78.23
68301;BME280;55146;47.468;18.806;2023-02-11T01:05:45;102071.94;;;-3.29;77.87
68301;BME280;55146;47.468;18.806;2023-02-11T01:08:11;102077.31;;;-3.29;78.10
68301;BME280;55146;47.468;18.806;2023-02-11T01:10:36;102066.56;;;-3.29;78.34
68301;BME280;55146;47.468;18.806;2023-02-11T01:13:02;102064.28;;;-3.34;78.30
68301;BME280;55146;47.468;18.806;2023-02-11T01:15:28;102054.22;;;-3.32;78.18
68301;BME280;55146;47.468;18.806;2023-02-11T01:17:54;102056.66;;;-3.29;78.16
68301;BME280;55146;47.468;18.806;2023-02-11T01:20:22;102054.94;;;-3.30;78.22
68301;BME280;55146;47.468;18.806;2023-02-11T01:22:48;102047.19;;;-3.23;78.28
68301;BME280;55146;47.468;18.806;2023-02-11T01:25:14;102051.28;;;-3.29;78.21
68301;BME280;55146;47.468;18.806;2023-02-11T01:27:40;102041.75;;;-3.33;78.00
68301;BME280;55146;47.468;18.806;2023-02-11T01:30:07;102041.31;;;-3.38;78.39
68301;BME280;55146;47.468;18.806;2023-02-11T01:32:33;102042.03;;;-3.36;78.29
68301;BME280;55146;47.468;18.806;2023-02-11T01:34:59;102038.19;;;-3.43;78.58
68301;BME280;55146;47.468;18.806;2023-02-11T01:37:24;102031.38;;;-3.47;78.98
68301;BME280;55146;47.468;18.806;2023-02-11T01:39:50;102032.50;;;-3.49;78.50
68301;BME280;55146;47.468;18.806;2023-02-11T01:42:20;102034.19;;;-3.48;78.32
68301;BME280;55146;47.468;18.806;2023-02-11T01:44:49;102025.41;;;-3.50;78.17
68301;BME280;55146;47.468;18.806;2023-02-11T01:47:19;102028.62;;;-3.56;78.19
68301;BME280;55146;47.468;18.806;2023-02-11T01:49:49;102026.78;;;-3.65;78.27
68301;BME280;55146;47.468;18.806;2023-02-11T01:52:30;102032.69;;;-3.72;78.33
68301;BME280;55146;47.468;18.806;2023-02-11T01:54:58;102035.19;;;-3.80;78.68
68301;BME280;55146;47.468;18.806;2023-02-11T01:57:48;102033.06;;;-3.76;78.81
68301;BME280;55146;47.468;18.806;2023-02-11T02:00:20;102029.09;;;-3.82;78.72
68301;BME280;55146;47.468;18.806;2023-02-11T02:08:20;102028.50;;;-3.85;78.85
68301;BME280;55146;47.468;18.806;2023-02-11T02:10:49;102027.25;;;-3.81;78.63
68301;BME280;55146;47.468;18.806;2023-02-11T02:13:18;102023.72;;;-3.82;78.36
68301;BME280;55146;47.468;18.806;2023-02-11T02:15:55;102026.81;;;-3.86;78.18
68301;BME280;55146;47.468;18.806;2023-02-11T02:37:33;102015.72;;;-3.93;78.42
68301;BME280;55146;47.468;18.806;2023-02-11T02:40:05;102010.38;;;-3.93;78.05
68301;BME280;55146;47.468;18.806;2023-02-11T02:42:34;102010.66;;;-3.96;77.77
68301;BME280;55146;47.468;18.806;2023-02-11T02:45:00;102000.75;;;-3.95;77.70
68301;BME280;55146;47.468;18.806;2023-02-11T02:47:26;102008.31;;;-4.00;77.56
68301;BME280;55146;47.468;18.806;2023-02-11T02:49:51;102004.78;;;-4.01;77.73
68301;BME280;55146;47.468;18.806;2023-02-11T03:01:27;102002.19;;;-4.12;77.86
68301;BME280;55146;47.468;18.806;2023-02-11T03:04:22;102009.47;;;-4.24;77.75
68301;BME280;55146;47.468;18.806;2023-02-11T03:09:43;102002.78;;;-4.29;78.01
68301;BME280;55146;47.468;18.806;2023-02-11T03:12:11;101996.31;;;-4.27;77.91
68301;BME280;55146;47.468;18.806;2023-02-11T03:14:39;101996.78;;;-4.22;78.03
68301;BME280;55146;47.468;18.806;2023-02-11T03:17:07;101999.25;;;-4.30;77.94
68301;BME280;55146;47.468;18.806;2023-02-11T03:19:43;101992.69;;;-4.37;78.09
68301;BME280;55146;47.468;18.806;2023-02-11T03:22:26;101986.63;;;-4.39;77.95
68301;BME280;55146;47.468;18.806;2023-02-11T03:24:52;101980.00;;;-4.35;77.80
68301;BME280;55146;47.468;18.806;2023-02-11T03:27:26;101984.38;;;-4.34;77.64
68301;BME280;55146;47.468;18.806;2023-02-11T03:32:36;101989.87;;;-4.35;77.79
68301;BME280;55146;47.468;18.806;2023-02-11T03:35:09;101985.16;;;-4.43;77.93
68301;BME280;55146;47.468;18.806;2023-02-11T03:37:39;101981.50;;;-4.42;78.17
68301;BME280;55146;47.468;18.806;2023-02-11T03:40:13;101979.94;;;-4.44;78.03
68301;BME280;55146;47.468;18.806;2023-02-11T03:42:45;101976.53;;;-4.46;77.90
68301;BME280;55146;47.468;18.806;2023-02-11T03:45:16;101975.22;;;-4.52;78.12
68301;BME280;55146;47.468;18.806;2023-02-11T03:47:48;101968.72;;;-4.50;77.89
68301;BME280;55146;47.468;18.806;2023-02-11T03:50:16;101957.12;;;-4.50;78.01
68301;BME280;55146;47.468;18.806;2023-02-11T03:52:43;101946.25;;;-4.49;77.96
68301;BME280;55146;47.468;18.806;2023-02-11T03:55:12;101945.41;;;-4.49;78.07
68301;BME280;55146;47.468;18.806;2023-02-11T03:57:39;101939.59;;;-4.54;77.97
68301;BME280;55146;47.468;18.806;2023-02-11T04:00:05;101938.63;;;-4.53;78.11
68301;BME280;55146;47.468;18.806;2023-02-11T04:02:33;101930.56;;;-4.53;78.03
68301;BME280;55146;47.468;18.806;2023-02-11T04:04:59;101930.16;;;-4.49;78.25
68301;BME280;55146;47.468;18.806;2023-02-11T04:07:25;101925.91;;;-4.51;78.02
68301;BME280;55146;47.468;18.806;2023-02-11T04:09:50;101921.41;;;-4.51;77.88
68301;BME280;55146;47.468;18.806;2023-02-11T04:12:16;101920.28;;;-4.48;77.81
68301;BME280;55146;47.468;18.806;2023-02-11T04:14:42;101915.88;;;-4.49;77.96
68301;BME280;55146;47.468;18.806;2023-02-11T04:17:07;101915.50;;;-4.44;78.01
68301;BME280;55146;47.468;18.806;2023-02-11T04:19:33;101909.81;;;-4.51;77.78
68301;BME280;55146;47.468;18.806;2023-02-11T04:21:58;101913.59;;;-4.54;78.01
68301;BME280;55146;47.468;18.806;2023-02-11T04:24:24;101916.16;;;-4.52;78.12
68301;BME280;55146;47.468;18.806;2023-02-11T04:26:49;101909.94;;;-4.53;78.12
68301;BME280;55146;47.468;18.806;2023-02-11T04:29:15;101900.28;;;-4.55;78.12
68301;BME280;55146;47.468;18.806;2023-02-11T04:31:40;101898.06;;;-4.50;78.14
68301;BME280;55146;47.468;18.806;2023-02-11T04:34:05;101893.09;;;-4.55;77.75
68301;BME280;55146;47.468;18.806;2023-02-11T04:36:31;101900.28;;;-4.55;77.70
68301;BME280;55146;47.468;18.806;2023-02-11T04:38:56;101896.06;;;-4.58;78.02
68301;BME280;55146;47.468;18.806;2023-02-11T04:41:21;101908.19;;;-4.63;78.02
68301;BME280;55146;47.468;18.806;2023-02-11T04:43:47;101904.25;;;-4.59;78.29
68301;BME280;55146;47.468;18.806;2023-02-11T04:46:12;101901.44;;;-4.58;78.18
68301;BME280;55146;47.468;18.806;2023-02-11T04:48:37;101904.81;;;-4.56;78.20
68301;BME280;55146;47.468;18.806;2023-02-11T04:51:03;101905.78;;;-4.57;78.05
68301;BME280;55146;47.468;18.806;2023-02-11T04:53:29;101898.59;;;-4.56;77.86
68301;BME280;55146;47.468;18.806;2023-02-11T04:55:54;101896.31;;;-4.61;77.98
68301;BME280;55146;47.468;18.806;2023-02-11T04:58:19;101903.06;;;-4.66;78.33
68301;BME280;55146;47.468;18.806;2023-02-11T05:00:45;101895.84;;;-4.66;78.38
68301;BME280;55146;47.468;18.806;2023-02-11T05:03:11;101905.88;;;-4.68;78.37
68301;BME280;55146;47.468;18.806;2023-02-11T05:05:38;101907.38;;;-4.75;78.45
68301;BME280;55146;47.468;18.806;2023-02-11T05:08:05;101908.50;;;-4.77;78.14
68301;BME280;55146;47.468;18.806;2023-02-11T05:10:30;101903.00;;;-4.76;78.23
68301;BME280;55146;47.468;18.806;2023-02-11T05:12:56;101912.16;;;-4.78;78.23
68301;BME280;55146;47.468;18.806;2023-02-11T05:15:21;101908.50;;;-4.77;78.24
68301;BME280;55146;47.468;18.806;2023-02-11T05:17:46;101915.13;;;-4.81;78.26
68301;BME280;55146;47.468;18.806;2023-02-11T05:20:12;101918.25;;;-4.76;78.54
68301;BME280;55146;47.468;18.806;2023-02-11T05:22:37;101908.94;;;-4.72;78.44
68301;BME280;55146;47.468;18.806;2023-02-11T05:25:03;101913.34;;;-4.71;78.20
68301;BME280;55146;47.468;18.806;2023-02-11T05:27:28;101904.84;;;-4.76;78.05
68301;BME280;55146;47.468;18.806;2023-02-11T05:29:54;101909.22;;;-4.75;77.89
68301;BME280;55146;47.468;18.806;2023-02-11T05:32:19;101904.44;;;-4.72;77.88
68301;BME280;55146;47.468;18.806;2023-02-11T05:34:45;101908.50;;;-4.77;78.04
68301;BME280;55146;47.468;18.806;2023-02-11T05:37:10;101904.37;;;-4.81;77.64
68301;BME280;55146;47.468;18.806;2023-02-11T05:39:35;101895.47;;;-4.82;77.57
68301;BME280;55146;47.468;18.806;2023-02-11T05:42:01;101899.66;;;-4.89;77.57
68301;BME280;55146;47.468;18.806;2023-02-11T05:44:26;101883.22;;;-4.96;78.07
68301;BME280;55146;47.468;18.806;2023-02-11T05:46:51;101877.00;;;-4.96;77.96
68301;BME280;55146;47.468;18.806;2023-02-11T05:49:17;101890.44;;;-4.96;78.03
68301;BME280;55146;47.468;18.806;2023-02-11T05:51:42;101882.16;;;-5.04;77.96
68301;BME280;55146;47.468;18.806;2023-02-11T05:54:08;101895.84;;;-5.07;78.19
68301;BME280;55146;47.468;18.806;2023-02-11T05:56:33;101895.00;;;-5.08;78.18
68301;BME280;55146;47.468;18.806;2023-02-11T05:58:59;101896.19;;;-5.01;78.29
68301;BME280;55146;47.468;18.806;2023-02-11T06:01:25;101899.13;;;-5.04;78.08
68301;BME280;55146;47.468;18.806;2023-02-11T06:03:50;101897.56;;;-5.06;78.12
68301;BME280;55146;47.468;18.806;2023-02-11T06:06:16;101892.78;;;-5.03;78.23
68301;BME280;55146;47.468;18.806;2023-02-11T06:08:41;101900.41;;;-4.98;78.36
68301;BME280;55146;47.468;18.806;2023-02-11T06:11:07;101897.75;;;-4.98;78.29
68301;BME280;55146;47.468;18.806;2023-02-11T06:13:33;101899.31;;;-4.96;78.28
68301;BME280;55146;47.468;18.806;2023-02-11T06:16:00;101899.78;;;-4.91;78.46
68301;BME280;55146;47.468;18.806;2023-02-11T06:18:26;101900.25;;;-4.85;78.62
68301;BME280;55146;47.468;18.806;2023-02-11T06:20:52;101888.13;;;-4.80;78.44
68301;BME280;55146;47.468;18.806;2023-02-11T06:23:18;101884.59;;;-4.80;78.24
68301;BME280;55146;47.468;18.806;2023-02-11T06:25:43;101878.53;;;-4.82;78.88
68301;BME280;55146;47.468;18.806;2023-02-11T06:28:09;101889.44;;;-4.74;78.66
68301;BME280;55146;47.468;18.806;2023-02-11T06:30:36;101887.06;;;-4.68;78.58
68301;BME280;55146;47.468;18.806;2023-02-11T06:33:01;101887.94;;;-4.67;79.03
68301;BME280;55146;47.468;18.806;2023-02-11T06:35:28;101894.87;;;-4.65;79.29
68301;BME280;55146;47.468;18.806;2023-02-11T06:37:53;101892.78;;;-4.61;79.46
68301;BME280;55146;47.468;18.806;2023-02-11T06:40:19;101891.00;;;-4.51;79.63
68301;BME280;55146;47.468;18.806;2023-02-11T06:42:44;101892.03;;;-4.42;80.22
68301;BME280;55146;47.468;18.806;2023-02-11T06:45:10;101885.59;;;-4.30;80.06
68301;BME280;55146;47.468;18.806;2023-02-11T06:47:37;101884.81;;;-4.21;79.59
68301;BME280;55146;47.468;18.806;2023-02-11T06:50:04;101877.50;;;-4.10;79.25
68301;BME280;55146;47.468;18.806;2023-02-11T06:52:30;101881.09;;;-3.90;79.00
68301;BME280;55146;47.468;18.806;2023-02-11T06:54:55;101879.72;;;-3.75;78.74
68301;BME280;55146;47.468;18.806;2023-02-11T06:57:20;101877.91;;;-3.64;78.74
68301;BME280;55146;47.468;18.806;2023-02-11T06:59:46;101871.25;;;-3.60;78.53
68301;BME280;55146;47.468;18.806;2023-02-11T07:02:11;101874.13;;;-3.52;78.65
68301;BME280;55146;47.468;18.806;2023-02-11T07:04:36;101869.84;;;-3.45;78.40
68301;BME280;55146;47.468;18.806;2023-02-11T07:07:02;101871.72;;;-3.36;78.06
68301;BME280;55146;47.468;18.806;2023-02-11T07:09:27;101873.72;;;-3.29;77.69
68301;BME280;55146;47.468;18.806;2023-02-11T07:11:53;101863.06;;;-3.20;77.63
68301;BME280;55146;47.468;18.806;2023-02-11T07:14:18;101871.13;;;-3.20;77.36
68301;BME280;55146;47.468;18.806;2023-02-11T07:16:43;101862.66;;;-3.16;78.00
68301;BME280;55146;47.468;18.806;2023-02-11T07:19:09;101863.22;;;-3.03;77.90
68301;BME280;55146;47.468;18.806;2023-02-11T07:21:34;101857.09;;;-2.95;78.03
68301;BME280;55146;47.468;18.806;2023-02-11T07:24:00;101860.97;;;-2.98;77.89
68301;BME280;55146;47.468;18.806;2023-02-11T07:26:26;101860.78;;;-2.87;78.07
68301;BME280;55146;47.468;18.806;2023-02-11T07:28:53;101860.22;;;-2.80;78.17
68301;BME280;55146;47.468;18.806;2023-02-11T07:31:22;101861.47;;;-2.75;78.44
68301;BME280;55146;47.468;18.806;2023-02-11T07:33:48;101861.75;;;-2.68;78.11
68301;BME280;55146;47.468;18.806;2023-02-11T07:36:15;101863.16;;;-2.64;78.29
68301;BME280;55146;47.468;18.806;2023-02-11T07:38:41;101870.16;;;-2.34;78.67
68301;BME280;55146;47.468;18.806;2023-02-11T07:41:09;101866.03;;;-1.92;77.47
68301;BME280;55146;47.468;18.806;2023-02-11T07:43:36;101859.31;;;-1.88;75.54
68301;BME280;55146;47.468;18.806;2023-02-11T07:46:13;101859.94;;;-1.94;75.65
68301;BME280;55146;47.468;18.806;2023-02-11T07:48:40;101851.53;;;-1.91;76.05
68301;BME280;55146;47.468;18.806;2023-02-11T07:51:13;101851.84;;;-1.94;75.93
68301;BME280;55146;47.468;18.806;2023-02-11T07:53:39;101844.59;;;-1.93;76.52
68301;BME280;55146;47.468;18.806;2023-02-11T07:56:06;101834.81;;;-1.94;76.76
68301;BME280;55146;47.468;18.806;2023-02-11T07:58:32;101834.22;;;-1.88;76.75
68301;BME280;55146;47.468;18.806;2023-02-11T08:01:06;101831.75;;;-1.82;77.13
68301;BME280;55146;47.468;18.806;2023-02-11T08:03:33;101827.06;;;-1.80;77.80
68301;BME280;55146;47.468;18.806;2023-02-11T08:06:05;101827.00;;;-1.70;77.80
68301;BME280;55146;47.468;18.806;2023-02-11T08:08:32;101834.19;;;-1.61;77.83
68301;BME280;55146;47.468;18.806;2023-02-11T08:10:57;101838.13;;;-1.55;78.62
68301;BME280;55146;47.468;18.806;2023-02-11T08:13:23;101828.62;;;-1.42;78.55
68301;BME280;55146;47.468;18.806;2023-02-11T08:15:51;101827.19;;;-1.36;78.91
68301;BME280;55146;47.468;18.806;2023-02-11T08:18:16;101823.78;;;-1.20;79.14
68301;BME280;55146;47.468;18.806;2023-02-11T08:20:41;101830.09;;;-1.12;79.00
68301;BME280;55146;47.468;18.806;2023-02-11T08:23:07;101837.03;;;-1.09;78.00
68301;BME280;55146;47.468;18.806;2023-02-11T08:25:32;101829.63;;;-1.07;77.60
68301;BME280;55146;47.468;18.806;2023-02-11T08:27:58;101827.06;;;-1.09;77.57
68301;BME280;55146;47.468;18.806;2023-02-11T08:30:23;101826.06;;;-1.08;77.72
68301;BME280;55146;47.468;18.806;2023-02-11T08:32:49;101820.56;;;-0.98;78.81
68301;BME280;55146;47.468;18.806;2023-02-11T08:35:15;101823.50;;;-0.92;79.07
68301;BME280;55146;47.468;18.806;2023-02-11T08:37:40;101822.66;;;-0.92;79.29
68301;BME280;55146;47.468;18.806;2023-02-11T08:40:06;101823.09;;;-0.79;79.26
68301;BME280;55146;47.468;18.806;2023-02-11T08:42:31;101827.84;;;-0.73;79.83
68301;BME280;55146;47.468;18.806;2023-02-11T08:44:56;101825.34;;;-0.74;80.57
68301;BME280;55146;47.468;18.806;2023-02-11T08:47:22;101826.37;;;-0.67;80.62
68301;BME280;55146;47.468;18.806;2023-02-11T08:49:47;101822.81;;;-0.68;81.07
68301;BME280;55146;47.468;18.806;2023-02-11T08:52:13;101820.19;;;-0.60;80.78
68301;BME280;55146;47.468;18.806;2023-02-11T08:54:38;101824.94;;;-0.54;80.53
68301;BME280;55146;47.468;18.806;2023-02-11T08:57:04;101822.31;;;-0.46;80.58
68301;BME280;55146;47.468;18.806;2023-02-11T08:59:29;101826.22;;;-0.40;81.03
68301;BME280;55146;47.468;18.806;2023-02-11T09:01:54;101826.41;;;-0.33;81.17
68301;BME280;55146;47.468;18.806;2023-02-11T09:04:20;101818.19;;;-0.24;80.69
68301;BME280;55146;47.468;18.806;2023-02-11T09:06:46;101823.63;;;-0.16;80.36
68301;BME280;55146;47.468;18.806;2023-02-11T09:09:12;101816.56;;;-0.09;79.95
68301;BME280;55146;47.468;18.806;2023-02-11T09:11:39;101816.44;;;0.01;79.80
68301;BME280;55146;47.468;18.806;2023-02-11T09:14:05;101809.91;;;0.12;79.40
68301;BME280;55146;47.468;18.806;2023-02-11T09:16:34;101806.22;;;0.29;79.00
68301;BME280;55146;47.468;18.806;2023-02-11T09:19:01;101805.75;;;0.42;78.36
68301;BME280;55146;47.468;18.806;2023-02-11T09:21:28;101799.50;;;0.65;78.21
68301;BME280;55146;47.468;18.806;2023-02-11T09:23:54;101806.97;;;0.88;77.96
68301;BME280;55146;47.468;18.806;2023-02-11T09:26:24;101801.19;;;1.07;77.36
68301;BME280;55146;47.468;18.806;2023-02-11T09:28:50;101797.44;;;1.32;76.45
68301;BME280;55146;47.468;18.806;2023-02-11T09:31:21;101790.78;;;1.59;75.27
68301;BME280;55146;47.468;18.806;2023-02-11T09:33:49;101800.06;;;1.73;73.18
68301;BME280;55146;47.468;18.806;2023-02-11T09:36:20;101798.53;;;1.78;73.42
68301;BME280;55146;47.468;18.806;2023-02-11T09:38:46;101793.88;;;1.87;72.50
68301;BME280;55146;47.468;18.806;2023-02-11T09:41:38;101794.19;;;2.00;71.69
68301;BME280;55146;47.468;18.806;2023-02-11T09:44:09;101789.34;;;2.18;71.63
68301;BME280;55146;47.468;18.806;2023-02-11T09:46:41;101784.38;;;2.53;72.90
68301;BME280;55146;47.468;18.806;2023-02-11T09:49:18;101776.22;;;2.75;69.96
68301;BME280;55146;47.468;18.806;2023-02-11T09:51:53;101778.97;;;2.90;69.82
68301;BME280;55146;47.468;18.806;2023-02-11T09:54:33;101775.25;;;2.91;67.99
68301;BME280;55146;47.468;18.806;2023-02-11T09:56:59;101776.13;;;3.06;67.95
68301;BME280;55146;47.468;18.806;2023-02-11T09:59:25;101774.38;;;3.28;67.62
68301;BME280;55146;47.468;18.806;2023-02-11T10:02:01;101770.75;;;3.50;67.57
68301;BME280;55146;47.468;18.806;2023-02-11T10:18:45;101751.03;;;3.92;70.21
68301;BME280;55146;47.468;18.806;2023-02-11T10:23:57;101744.59;;;4.15;70.54
68301;BME280;55146;47.468;18.806;2023-02-11T10:26:26;101735.50;;;4.43;70.21
68301;BME280;55146;47.468;18.806;2023-02-11T10:28:58;101728.22;;;4.72;66.65
68301;BME280;55146;47.468;18.806;2023-02-11T10:31:36;101728.22;;;4.93;65.66
68301;BME280;55146;47.468;18.806;2023-02-11T10:34:06;101720.63;;;5.16;64.43
68301;BME280;55146;47.468;18.806;2023-02-11T10:36:35;101717.28;;;5.21;63.54
68301;BME280;55146;47.468;18.806;2023-02-11T10:41:49;101708.00;;;5.15;61.63
68301;BME280;55146;47.468;18.806;2023-02-11T10:44:41;101705.25;;;5.09;61.92
68301;BME280;55146;47.468;18.806;2023-02-11T10:47:23;101702.59;;;5.22;62.34
68301;BME280;55146;47.468;18.806;2023-02-11T10:49:50;101697.50;;;5.47;62.69
68301;BME280;55146;47.468;18.806;2023-02-11T10:52:26;101688.50;;;5.53;61.98
68301;BME280;55146;47.468;18.806;2023-02-11T10:57:58;101693.84;;;6.22;59.88
68301;BME280;55146;47.468;18.806;2023-02-11T11:00:41;101678.78;;;6.78;58.73
68301;BME280;55146;47.468;18.806;2023-02-11T11:03:37;101685.06;;;7.05;54.63
68301;BME280;55146;47.468;18.806;2023-02-11T11:06:10;101674.53;;;7.22;54.66
68301;BME280;55146;47.468;18.806;2023-02-11T11:08:46;101674.47;;;7.35;53.56
68301;BME280;55146;47.468;18.806;2023-02-11T11:11:21;101673.87;;;7.33;53.95
68301;BME280;55146;47.468;18.806;2023-02-11T11:16:36;101658.25;;;7.47;52.54
68301;BME280;55146;47.468;18.806;2023-02-11T11:24:23;101650.16;;;6.87;52.52
68301;BME280;55146;47.468;18.806;2023-02-11T11:26:55;101644.69;;;6.81;52.06
68301;BME280;55146;47.468;18.806;2023-02-11T11:29:35;101637.31;;;6.42;53.24
68301;BME280;55146;47.468;18.806;2023-02-11T11:32:13;101627.22;;;6.36;53.53
68301;BME280;55146;47.468;18.806;2023-02-11T11:34:48;101629.34;;;6.40;53.90
68301;BME280;55146;47.468;18.806;2023-02-11T11:37:36;101618.62;;;6.39;53.61
68301;BME280;55146;47.468;18.806;2023-02-11T11:42:40;101611.69;;;6.23;53.15
68301;BME280;55146;47.468;18.806;2023-02-11T11:47:46;101609.78;;;6.50;51.85
68301;BME280;55146;47.468;18.806;2023-02-11T11:50:34;101606.41;;;6.55;52.08
68301;BME280;55146;47.468;18.806;2023-02-11T11:55:58;101601.59;;;6.70;52.58
68301;BME280;55146;47.468;18.806;2023-02-11T11:58:27;101593.19;;;6.71;50.83
68301;BME280;55146;47.468;18.806;2023-02-11T12:20:41;101543.78;;;6.40;52.40
68301;BME280;55146;47.468;18.806;2023-02-11T12:28:33;101528.41;;;6.65;50.99
68301;BME280;55146;47.468;18.806;2023-02-11T12:47:41;101504.41;;;6.67;47.70
68301;BME280;55146;47.468;18.806;2023-02-11T12:55:47;101475.56;;;6.84;47.32
68301;BME280;55146;47.468;18.806;2023-02-11T12:58:18;101474.44;;;6.92;46.76
68301;BME280;55146;47.468;18.806;2023-02-11T13:00:59;101474.34;;;7.18;46.58
68301;BME280;55146;47.468;18.806;2023-02-11T13:07:08;101475.84;;;7.52;44.98
68301;BME280;55146;47.468;18.806;2023-02-11T13:09:54;101474.34;;;7.56;45.43
68301;BME280;55146;47.468;18.806;2023-02-11T13:12:25;101454.97;;;7.58;45.13
68301;BME280;55146;47.468;18.806;2023-02-11T13:15:14;101461.06;;;7.53;45.83
68301;BME280;55146;47.468;18.806;2023-02-11T13:17:47;101466.16;;;7.50;45.80
68301;BME280;55146;47.468;18.806;2023-02-11T13:20:31;101454.88;;;7.40;45.34
68301;BME280;55146;47.468;18.806;2023-02-11T13:24:06;101462.62;;;7.43;46.26
68301;BME280;55146;47.468;18.806;2023-02-11T13:26:22;101453.75;;;7.47;45.36
68301;BME280;55146;47.468;18.806;2023-02-11T13:31:33;101446.38;;;7.48;45.73
68301;BME280;55146;47.468;18.806;2023-02-11T13:34:00;101443.63;;;7.48;46.07
68301;BME280;55146;47.468;18.806;2023-02-11T13:36:28;101450.13;;;7.53;47.01
68301;BME280;55146;47.468;18.806;2023-02-11T13:41:29;101439.00;;;7.48;43.65
68301;BME280;55146;47.468;18.806;2023-02-11T13:44:05;101435.78;;;7.26;44.67
68301;BME280;55146;47.468;18.806;2023-02-11T13:47:21;101440.41;;;7.26;45.41
68301;BME280;55146;47.468;18.806;2023-02-11T13:49:50;101448.66;;;7.19;45.48
68301;BME280;55146;47.468;18.806;2023-02-11T13:54:56;101446.87;;;7.00;43.94
68301;BME280;55146;47.468;18.806;2023-02-11T13:57:30;101455.06;;;7.00;44.00
68301;BME280;55146;47.468;18.806;2023-02-11T13:59:59;101454.47;;;6.91;44.42
68301;BME280;55146;47.468;18.806;2023-02-11T14:05:19;101448.44;;;6.76;44.78
68301;BME280;55146;47.468;18.806;2023-02-11T14:10:55;101424.09;;;6.62;44.46
68301;BME280;55146;47.468;18.806;2023-02-11T14:13:27;101426.22;;;6.60;45.37
68301;BME280;55146;47.468;18.806;2023-02-11T14:16:07;101426.84;;;6.48;45.60
68301;BME280;55146;47.468;18.806;2023-02-11T14:21:18;101430.66;;;6.47;46.21
68301;BME280;55146;47.468;18.806;2023-02-11T14:23:44;101434.66;;;6.45;45.88
68301;BME280;55146;47.468;18.806;2023-02-11T14:31:20;101447.09;;;6.34;46.75
68301;BME280;55146;47.468;18.806;2023-02-11T14:42:23;101448.81;;;6.16;46.83
68301;BME280;55146;47.468;18.806;2023-02-11T14:44:54;101451.34;;;6.17;47.65
68301;BME280;55146;47.468;18.806;2023-02-11T14:47:39;101447.13;;;6.08;48.16
68301;BME280;55146;47.468;18.806;2023-02-11T14:50:10;101434.31;;;6.15;48.74
68301;BME280;55146;47.468;18.806;2023-02-11T14:52:39;101447.13;;;5.88;50.00
68301;BME280;55146;47.468;18.806;2023-02-11T14:55:31;101437.06;;;5.89;49.56
68301;BME280;55146;47.468;18.806;2023-02-11T14:58:20;101432.44;;;6.02;48.87
68301;BME280;55146;47.468;18.806;2023-02-11T15:01:21;101429.28;;;5.92;49.30
68301;BME280;55146;47.468;18.806;2023-02-11T15:03:50;101429.25;;;5.79;50.19
68301;BME280;55146;47.468;18.806;2023-02-11T15:06:41;101423.37;;;5.82;49.94
68301;BME280;55146;47.468;18.806;2023-02-11T15:09:20;101419.38;;;5.72;50.12
68301;BME280;55146;47.468;18.806;2023-02-11T15:11:50;101424.00;;;5.51;50.98
68301;BME280;55146;47.468;18.806;2023-02-11T15:14:31;101417.88;;;5.49;51.30
68301;BME280;55146;47.468;18.806;2023-02-11T15:17:00;101421.88;;;5.40;51.85
68301;BME280;55146;47.468;18.806;2023-02-11T15:19:35;101417.66;;;5.18;52.77
68301;BME280;55146;47.468;18.806;2023-02-11T15:22:27;101413.66;;;5.20;53.69
68301;BME280;55146;47.468;18.806;2023-02-11T15:25:02;101417.81;;;5.03;54.64
68301;BME280;55146;47.468;18.806;2023-02-11T15:27:40;101412.19;;;5.11;54.57
68301;BME280;55146;47.468;18.806;2023-02-11T15:30:24;101401.03;;;5.06;54.74
68301;BME280;55146;47.468;18.806;2023-02-11T15:32:53;101398.50;;;4.92;55.51
68301;BME280;55146;47.468;18.806;2023-02-11T15:35:37;101399.78;;;5.09;54.05